Hebron, Connecticut
Current Conditions -  °F | °C
As of 9:52 AM on Sunday 23 Nov 2014 (Local Time) from KIJD Reporting Station
Overcast Overcast  
Wind Chill: 45°   Ceiling: 6500
Heat Index: 48°   Visibility: 10mi
Dew Point: 23°   Wind: 6mph
Humidity: 37%   Direction: 210°SSW
Pressure: 30.18"   Gusts: NA
Location:  41.66°N, 72.37°W
Report Text: KIJD 231452Z AUTO 21005KT 10SM OVC065 09/M05 A3018 RMK AO2 SLP220 T00891050 50008
Loading
Personal Weather Stations






























Interactive Weather Map New forecast layout! Learn more

10-Day Weather Forecast

Advertisements
Track Severe Weather on mobile